Historyczne dane pomiarowe

Dodano dane terminowe – wersja testowa.

Dane z okresu 1951-2019

Wersja bazy: 1.34 [2019-03-16, lista zmian], aktualizacja planowana na 2019-04-15

Dane meteo z obszaru Polski uzyskane na podstawie danych udostępnionych przez Instytut Meteorologii i Gospodarki Wodnej – Państwowy Instytut Badawczy.

 

Wybierz Datę:    

       

TemperaturaWilgotnośćWiatrCiśnienieOpadyŚniegCzas trwania zjawisk
 Stacja t tx tn tng RH VA  wxwx mslp ppp RRR   cm mm wxwxwxwxwxwxwx
1983-08-14 14.2 19.6 9.7 8.1 68.8- 6.3 1.7---- 0.0------------
1983-08-13 15.6 22.5 13.2 13.1 74.3- 6.7 5.0---- 0.4------------
1983-08-12 20.3 26.4 13.8 12.0 59.3- 4.7 1.7---- 12.4------------
1983-08-11 20.8 27.9 12.8 11.2 61.8- 1.3 1.0---- 0.0------------
1983-08-10 20.9 26.8 15.0 13.5 65.8- 3.0 1.0---- 0.0------------
1983-08-09 20.6 26.6 15.3 14.3 72.8- 2.0 0.7---- 0.0------------
1983-08-08 18.6 25.6 14.8 13.4 79.5- 7.3 1.0---- 7.4------------
1983-08-07 16.9 22.0 14.0 12.0 85.8- 5.0 0.3---- 8.4------------
1983-08-06 16.4 21.2 12.5 10.4 66.8- 5.7 1.0---- 0.8------------
1983-08-05 14.1 18.5 10.4 10.2 71.3- 7.0 3.3---- 0.0------------
1983-08-04 11.8 13.3 10.8 10.0 93.5- 8.0 3.0---- 5.6------------
1983-08-03 14.6 20.0 13.2 13.1 89.0- 8.0 4.3---- 20.0------------
1983-08-02 22.6 30.0 19.3 16.9 62.3- 6.3 2.0---- 1.7------------
1983-08-01 24.5 34.0 14.2 10.3 37.3- 0.0 2.3---- 0.0------------
1983-07-31 18.5 28.0 8.6 6.6 52.8- 0.0 0.3---- 0.0------------
1983-07-30 19.3 23.0 16.2 14.9 60.0- 4.3 5.0---- 0.0------------
1983-07-29 19.3 25.0 15.5 13.3 59.5- 5.3 5.0---- 1.1------------
1983-07-28 24.4 31.0 20.2 19.3 48.8- 1.3 3.7---- 0.0------------
1983-07-27 24.8 35.4 12.9 11.0 46.8- 1.7 0.0---- 0.0------------
1983-07-26 22.3 30.2 11.7 9.4 47.3- 0.0 1.0---- 0.0------------
1983-07-25 18.9 25.8 10.4 7.2 54.8- 0.3 1.7---- 0.0------------
1983-07-24 17.6 24.5 11.2 9.3 65.3- 5.0 2.3---- 0.0------------
1983-07-23 20.0 26.3 14.3 12.0 56.3- 2.3 1.7---- 0.0------------
1983-07-22 14.4 17.2 10.5 7.6 72.5- 8.0 2.3---- 0.0------------
1983-07-21 13.8 18.9 9.4 8.0 55.5- 2.7 4.3---- 0.0------------
1983-07-20 15.3 24.2 11.5 12.3 68.0- 6.3 2.7---- 1.8------------
1983-07-19 22.5 27.4 18.0 16.3 61.8- 5.7 3.0---- 7.3------------
1983-07-18 24.6 34.5 15.5 12.7 53.8- 1.0 1.3---- 0.0------------
1983-07-17 21.0 27.4 13.5 12.0 56.3- 0.0 0.7---- 0.0------------
1983-07-16 18.0 29.0 13.6 11.5 74.5- 3.0 2.3---- 14.8------------
1983-07-15 20.6 27.2 13.2 10.5 51.8- 1.0 1.7---- 0.0------------
1983-07-14 19.6 23.8 16.7 16.4 73.0- 6.3 1.7---- 0.2------------
1983-07-13 20.7 26.5 15.4 14.1 63.5- 4.0 2.3---- 1.2------------
1983-07-12 22.6 31.7 18.0 15.5 60.5- 5.3 5.7---- 15.8------------
1983-07-11 22.5 30.6 17.2 15.1 59.5- 4.7 2.0---- 3.0------------
1983-07-10 24.2 31.4 16.2 13.1 47.5- 2.0 2.0---- 0.0------------
1983-07-09 22.3 29.6 13.5 8.8 53.0- 1.3 1.7---- 0.0------------
1983-07-08 21.3 28.4 12.8 11.8 44.3- 0.0 1.7---- 0.0------------
1983-07-07 24.1 30.6 17.7 14.7 47.0- 1.0 1.7---- 0.0------------
1983-07-06 22.9 31.6 13.4 9.3 48.3- 0.0 1.0---- 0.0------------
1983-07-05 19.9 26.6 12.4 9.8 50.8- 2.0 1.0---- 0.0------------
1983-07-04 20.6 27.5 11.6 8.5 55.3- 2.7 0.7---- 0.0------------
1983-07-03 19.5 25.7 10.0 6.9 56.8- 3.0 0.0---- 0.0------------
1983-07-02 18.6 23.2 12.7 12.0 56.0- 3.0 2.0---- 0.0------------
1983-07-01 20.4 27.4 11.9 8.6 53.8- 3.7 1.7---- 0.0------------
1983-06-30 19.8 26.0 12.3 9.4 55.5- 2.3 2.0---- 0.0------------
1983-06-29 14.6 21.0 6.5 3.8 56.5- 4.7 2.7---- 0.0------------
1983-06-28 16.0 21.2 13.8 13.4 61.8- 6.3 1.0---- 0.0------------
1983-06-27 19.0 24.6 15.5 14.2 76.5- 7.0 0.7---- 3.9------------
1983-06-26 21.3 27.2 13.2 9.6 56.3- 2.3 0.3---- 2.8------------
1983-06-25 20.6 30.4 13.5 8.8 61.3- 8.0 3.0---- 0.6------------
1983-06-24 19.2 29.0 8.4 3.9 52.0- 0.0 1.3---- 0.0------------
1983-06-23 16.8 23.8 7.0 3.3 46.5- 0.0 1.0---- 0.0------------
1983-06-22 15.9 22.5 9.0 8.2 46.3- 0.3 2.3---- 0.0------------
1983-06-21 20.4 26.8 12.4 8.7 48.0- 1.3 3.0---- 0.0------------
1983-06-20 19.5 25.5 12.8 11.8 49.0- 2.7 2.3---- 0.0------------
1983-06-19 16.2 20.8 12.7 12.3 66.5- 8.0 3.0---- 0.0------------
1983-06-18 13.6 16.4 10.7 9.5 68.8- 8.0 2.3---- 0.0------------
1983-06-17 12.2 16.5 7.5 4.8 59.3- 7.3 4.3---- 0.0------------
1983-06-16 13.9 18.8 10.3 9.6 58.0- 5.3 7.0---- 0.0------------
347.4 ms

 

Źródłem pochodzenia danych jest Instytut Meteorologii i Gospodarki Wodnej – Państwowy Instytut Badawczy. Dane Instytutu Meteorologii i Gospodarki Wodnej – Państwowego Instytutu Badawczego zostały przetworzone.

Dane źródłowe można odnaleźć na stronie https://dane.imgw.pl